createdAt,value
2023-10-10T00:02:19.688Z,15.59
2023-10-10T00:04:48.310Z,15.56
2023-10-10T00:07:20.073Z,15.54
2023-10-10T00:09:47.355Z,15.52
2023-10-10T00:12:19.134Z,15.49
2023-10-10T00:14:51.785Z,15.47
2023-10-10T00:17:19.263Z,15.47
2023-10-10T00:19:52.614Z,15.45
2023-10-10T00:22:29.016Z,15.45
2023-10-10T00:24:55.614Z,15.43
2023-10-10T00:27:24.932Z,15.42
2023-10-10T00:29:51.518Z,15.40
2023-10-10T00:32:18.526Z,15.36
2023-10-10T00:34:49.443Z,15.32
2023-10-10T00:37:22.183Z,15.26
2023-10-10T00:40:04.022Z,15.23
2023-10-10T00:42:42.791Z,15.21
2023-10-10T00:45:13.947Z,15.17
2023-10-10T00:47:53.800Z,15.16
2023-10-10T00:50:25.943Z,15.14
2023-10-10T00:52:54.896Z,15.10
2023-10-10T00:55:34.425Z,15.08
2023-10-10T00:58:02.235Z,15.05
2023-10-10T01:00:32.297Z,15.05
2023-10-10T01:03:21.604Z,15.06
2023-10-10T01:05:56.430Z,15.02
2023-10-10T01:08:32.304Z,14.97
2023-10-10T01:11:04.641Z,14.96
2023-10-10T01:13:32.035Z,14.96
2023-10-10T01:15:58.746Z,14.96
2023-10-10T01:18:26.369Z,14.95
2023-10-10T01:20:52.989Z,14.92
2023-10-10T01:23:27.724Z,14.92
2023-10-10T01:25:56.848Z,14.93
2023-10-10T01:28:35.140Z,14.91
2023-10-10T01:31:06.385Z,14.91
2023-10-10T01:33:37.818Z,14.89
2023-10-10T01:36:12.971Z,14.85
2023-10-10T01:38:57.004Z,14.84
2023-10-10T01:41:25.774Z,14.83
2023-10-10T01:43:55.248Z,14.82
2023-10-10T01:46:31.770Z,14.80
2023-10-10T01:48:58.758Z,14.78
2023-10-10T01:51:26.062Z,14.79
2023-10-10T01:53:53.820Z,14.79
2023-10-10T01:56:20.351Z,14.76
2023-10-10T01:58:47.122Z,14.72
2023-10-10T02:01:20.831Z,14.70
2023-10-10T02:03:49.227Z,14.67
2023-10-10T02:06:27.376Z,14.65
2023-10-10T02:08:54.219Z,14.66
2023-10-10T02:11:22.360Z,14.66
2023-10-10T02:13:50.140Z,14.65
2023-10-10T02:16:18.959Z,14.64
2023-10-10T02:18:48.802Z,14.61
2023-10-10T02:21:18.557Z,14.59
2023-10-10T02:23:47.816Z,14.55
2023-10-10T02:26:36.894Z,14.57
2023-10-10T02:29:21.129Z,14.52
2023-10-10T02:32:07.635Z,14.51
2023-10-10T02:34:38.075Z,14.47
2023-10-10T02:37:14.675Z,14.46
2023-10-10T02:39:48.467Z,14.41
2023-10-10T02:42:20.051Z,14.38
2023-10-10T02:44:50.763Z,14.37
2023-10-10T02:47:31.699Z,14.36
2023-10-10T02:50:10.856Z,14.36
2023-10-10T02:52:40.724Z,14.36
2023-10-10T02:55:15.331Z,14.35
2023-10-10T02:57:42.815Z,14.32
2023-10-10T03:00:28.156Z,14.28
2023-10-10T03:03:01.261Z,14.25
2023-10-10T03:06:00.188Z,14.21
2023-10-10T03:08:37.829Z,14.21
2023-10-10T03:11:16.068Z,14.19
2023-10-10T03:13:55.707Z,14.19
2023-10-10T03:16:22.337Z,14.21
2023-10-10T03:19:04.601Z,14.21
2023-10-10T03:21:49.467Z,14.13
2023-10-10T03:24:29.215Z,14.05
2023-10-10T03:27:22.110Z,13.99
2023-10-10T03:29:48.875Z,13.97
2023-10-10T03:32:34.061Z,13.94
2023-10-10T03:35:21.808Z,13.93
2023-10-10T03:38:05.431Z,13.93
2023-10-10T03:40:50.560Z,13.93
2023-10-10T03:43:35.568Z,13.90
2023-10-10T03:46:20.394Z,13.92
2023-10-10T03:49:05.702Z,13.96
2023-10-10T03:51:50.520Z,13.92
2023-10-10T03:54:37.406Z,13.92
2023-10-10T03:57:22.592Z,13.90
2023-10-10T04:00:07.544Z,13.92
2023-10-10T04:02:52.963Z,13.93
2023-10-10T04:05:38.117Z,13.95
2023-10-10T04:08:40.018Z,13.92
2023-10-10T04:11:25.598Z,13.90
2023-10-10T04:14:10.726Z,13.88
2023-10-10T04:16:56.015Z,13.89
2023-10-10T04:19:41.154Z,13.91
2023-10-10T04:22:26.496Z,13.92
2023-10-10T04:25:11.515Z,13.88
2023-10-10T04:27:56.774Z,13.89
2023-10-10T04:30:42.009Z,13.92
2023-10-10T04:33:27.448Z,13.91
2023-10-10T04:36:12.627Z,13.90
2023-10-10T04:38:57.768Z,13.89
2023-10-10T04:41:42.742Z,13.89
2023-10-10T04:44:27.762Z,13.90
2023-10-10T04:47:12.885Z,13.89
2023-10-10T04:49:58.381Z,13.89
2023-10-10T04:52:43.736Z,13.90
2023-10-10T04:55:29.230Z,13.88
2023-10-10T04:58:14.137Z,13.89
2023-10-10T05:00:59.459Z,13.91
2023-10-10T05:03:44.809Z,13.90
2023-10-10T05:06:30.229Z,13.90
2023-10-10T05:09:15.432Z,13.91
2023-10-10T05:12:00.467Z,13.90
2023-10-10T05:14:46.422Z,13.92
2023-10-10T05:17:34.728Z,13.92
2023-10-10T05:20:19.670Z,13.90
2023-10-10T05:23:04.571Z,13.90
2023-10-10T05:25:34.023Z,13.93
2023-10-10T05:28:00.609Z,13.92
2023-10-10T05:30:28.860Z,13.90
2023-10-10T05:33:04.157Z,13.89
2023-10-10T05:35:35.184Z,13.84
2023-10-10T05:38:02.266Z,13.88
2023-10-10T05:40:29.611Z,13.88
2023-10-10T05:42:58.435Z,13.91
2023-10-10T05:45:25.166Z,13.91
2023-10-10T05:47:52.201Z,13.92
2023-10-10T05:50:19.803Z,13.91
2023-10-10T05:52:46.675Z,13.87
2023-10-10T05:55:14.065Z,13.85
2023-10-10T05:57:41.420Z,13.82
2023-10-10T06:00:12.960Z,13.82
2023-10-10T06:02:40.184Z,13.85
2023-10-10T06:05:07.876Z,13.85
2023-10-10T06:07:34.404Z,13.86
2023-10-10T06:10:01.160Z,13.84
2023-10-10T06:12:27.678Z,13.84
2023-10-10T06:14:57.287Z,13.85
2023-10-10T06:17:24.124Z,13.84
2023-10-10T06:19:51.611Z,13.84
2023-10-10T06:22:18.109Z,13.83
2023-10-10T06:24:45.105Z,13.81
2023-10-10T06:27:14.515Z,13.80
2023-10-10T06:29:42.184Z,13.80
2023-10-10T06:32:16.977Z,13.81
2023-10-10T06:34:50.820Z,13.82
2023-10-10T06:37:17.898Z,13.82
2023-10-10T06:40:04.788Z,13.79
2023-10-10T06:42:31.535Z,13.76
2023-10-10T06:45:08.707Z,13.74
2023-10-10T06:47:36.318Z,13.71
2023-10-10T06:50:12.046Z,13.72
2023-10-10T06:52:39.382Z,13.72
2023-10-10T06:55:13.657Z,13.76
2023-10-10T06:57:43.494Z,13.78
2023-10-10T07:00:19.982Z,13.86
2023-10-10T07:02:50.708Z,13.91
2023-10-10T07:05:21.311Z,13.83
2023-10-10T07:07:53.643Z,13.85
2023-10-10T07:10:27.120Z,13.85
2023-10-10T07:13:00.067Z,13.88
2023-10-10T07:15:28.088Z,13.94
2023-10-10T07:18:12.895Z,13.92
2023-10-10T07:20:58.240Z,13.95
2023-10-10T07:23:25.767Z,13.91
2023-10-10T07:26:02.101Z,13.93
2023-10-10T07:28:29.376Z,13.92
2023-10-10T07:30:56.804Z,13.90
2023-10-10T07:33:30.599Z,13.92
2023-10-10T07:35:58.488Z,13.99
2023-10-10T07:38:28.904Z,14.00
2023-10-10T07:40:56.099Z,13.95
2023-10-10T07:43:28.582Z,13.96
2023-10-10T07:45:57.870Z,14.00
2023-10-10T07:48:30.223Z,14.03
2023-10-10T07:51:09.018Z,14.08
2023-10-10T07:53:43.997Z,14.14
2023-10-10T07:56:13.605Z,14.15
2023-10-10T07:58:53.766Z,14.16
2023-10-10T08:01:20.926Z,14.23
2023-10-10T08:03:48.847Z,14.26
2023-10-10T08:06:19.696Z,14.26
2023-10-10T08:08:50.154Z,14.30
2023-10-10T08:11:36.989Z,14.33
2023-10-10T08:14:08.941Z,14.38
2023-10-10T08:16:36.434Z,14.40
2023-10-10T08:19:07.705Z,14.45
2023-10-10T08:21:55.560Z,14.47
2023-10-10T08:24:22.018Z,14.49
2023-10-10T08:26:52.990Z,14.54
2023-10-10T08:29:27.083Z,14.61
2023-10-10T08:31:54.053Z,14.65
2023-10-10T08:34:21.307Z,14.70
2023-10-10T08:36:50.604Z,14.77
2023-10-10T08:39:17.076Z,14.84
2023-10-10T08:41:44.309Z,14.89
2023-10-10T08:44:12.368Z,14.93
2023-10-10T08:46:44.743Z,14.97
2023-10-10T08:49:13.775Z,15.02
2023-10-10T08:51:40.626Z,15.07
2023-10-10T08:54:12.582Z,15.10
2023-10-10T08:57:01.062Z,15.13
2023-10-10T08:59:32.136Z,15.17
2023-10-10T09:02:07.923Z,15.22
2023-10-10T09:04:35.142Z,15.28
2023-10-10T09:07:08.966Z,15.32
2023-10-10T09:09:36.732Z,15.36
2023-10-10T09:12:05.032Z,15.42
2023-10-10T09:14:42.011Z,15.51
2023-10-10T09:17:10.317Z,15.56
2023-10-10T09:19:48.151Z,15.59
2023-10-10T09:22:30.054Z,15.68
2023-10-10T09:25:00.950Z,15.74
2023-10-10T09:27:37.295Z,15.79
2023-10-10T09:30:10.767Z,15.82
2023-10-10T09:32:37.650Z,15.89
2023-10-10T09:35:09.875Z,15.93
2023-10-10T09:37:42.635Z,15.98
2023-10-10T09:40:17.040Z,16.04
2023-10-10T09:42:59.831Z,16.16
2023-10-10T09:45:54.430Z,16.24
2023-10-10T09:48:40.418Z,16.29
2023-10-10T09:51:37.556Z,16.36
2023-10-10T09:54:17.873Z,16.47
2023-10-10T09:56:57.307Z,16.58
2023-10-10T09:59:29.732Z,16.67
2023-10-10T10:02:06.321Z,16.69
2023-10-10T10:04:45.608Z,16.81
2023-10-10T10:07:28.967Z,16.97
2023-10-10T10:10:23.219Z,17.13
2023-10-10T10:13:20.734Z,17.24
2023-10-10T10:16:16.384Z,17.36
2023-10-10T10:18:47.971Z,17.52
2023-10-10T10:21:54.230Z,17.66
2023-10-10T10:24:29.637Z,17.71
2023-10-10T10:27:23.736Z,17.86
2023-10-10T10:30:30.753Z,17.88
2023-10-10T10:33:00.780Z,18.02
2023-10-10T10:36:00.613Z,18.14
2023-10-10T10:38:27.400Z,18.21
2023-10-10T10:41:06.617Z,18.33
2023-10-10T10:43:40.375Z,18.52
2023-10-10T10:46:15.195Z,18.58
2023-10-10T10:48:48.921Z,18.61
2023-10-10T10:51:33.890Z,18.68
2023-10-10T10:54:00.738Z,18.83
2023-10-10T10:56:31.109Z,18.96
2023-10-10T10:59:21.098Z,19.10
2023-10-10T11:01:59.060Z,19.15
2023-10-10T11:04:33.144Z,19.28
2023-10-10T11:07:16.669Z,19.42
2023-10-10T11:09:54.455Z,19.49
2023-10-10T11:12:32.411Z,19.48
2023-10-10T11:15:05.930Z,19.64
2023-10-10T11:17:41.181Z,19.83
2023-10-10T11:20:27.769Z,19.94
2023-10-10T11:22:56.795Z,20.02
2023-10-10T11:25:42.595Z,20.10
2023-10-10T11:28:24.712Z,20.26
2023-10-10T11:30:59.616Z,20.31
2023-10-10T11:33:47.303Z,20.48
2023-10-10T11:36:25.706Z,20.58
2023-10-10T11:38:57.146Z,20.70
2023-10-10T11:41:31.618Z,20.71
2023-10-10T11:44:03.988Z,20.73
2023-10-10T11:46:31.566Z,20.74
2023-10-10T11:48:58.167Z,20.63
2023-10-10T11:51:37.279Z,20.62
2023-10-10T11:54:03.891Z,20.49
2023-10-10T11:56:35.820Z,20.41
2023-10-10T11:59:15.297Z,20.38
2023-10-10T12:01:50.840Z,20.36
2023-10-10T12:04:33.359Z,20.47
2023-10-10T12:07:05.463Z,20.48
2023-10-10T12:09:32.517Z,20.62
2023-10-10T12:12:05.199Z,20.68
2023-10-10T12:14:32.492Z,20.73
2023-10-10T12:17:00.068Z,20.70
2023-10-10T12:19:29.558Z,20.79
2023-10-10T12:21:56.874Z,21.02
2023-10-10T12:24:24.909Z,21.09
2023-10-10T12:26:55.426Z,21.01
2023-10-10T12:29:26.359Z,20.72
2023-10-10T12:31:57.015Z,20.92
2023-10-10T12:34:24.903Z,20.99
2023-10-10T12:37:00.712Z,20.95
2023-10-10T12:39:31.109Z,21.04
2023-10-10T12:41:58.374Z,21.23
2023-10-10T12:44:25.080Z,21.28
2023-10-10T12:46:56.565Z,21.24
2023-10-10T12:49:30.053Z,21.20
2023-10-10T12:51:57.817Z,21.31
2023-10-10T12:54:28.654Z,21.32
2023-10-10T12:57:00.622Z,21.29
2023-10-10T12:59:33.081Z,21.17
2023-10-10T13:02:04.079Z,21.16
2023-10-10T13:04:33.741Z,21.14
2023-10-10T13:07:06.580Z,21.10
2023-10-10T13:09:33.818Z,21.09
2023-10-10T13:12:04.752Z,21.14
2023-10-10T13:14:34.222Z,21.25
2023-10-10T13:17:21.670Z,21.35
2023-10-10T13:19:50.262Z,21.36
2023-10-10T13:22:22.272Z,21.28
2023-10-10T13:24:52.370Z,21.31
2023-10-10T13:27:19.445Z,21.39
2023-10-10T13:29:46.369Z,21.48
2023-10-10T13:32:13.201Z,21.55
2023-10-10T13:34:39.682Z,21.62
2023-10-10T13:37:08.772Z,21.71
2023-10-10T13:39:45.358Z,21.80
2023-10-10T13:42:15.931Z,21.84
2023-10-10T13:44:43.704Z,21.80
2023-10-10T13:47:11.734Z,21.74
2023-10-10T13:49:45.590Z,21.67
2023-10-10T13:52:13.974Z,21.57
2023-10-10T13:54:40.859Z,21.53
2023-10-10T13:57:08.765Z,21.50
2023-10-10T13:59:35.371Z,21.43
2023-10-10T14:02:05.922Z,21.37
2023-10-10T14:04:47.414Z,21.31
2023-10-10T14:07:15.791Z,21.22
2023-10-10T14:09:59.670Z,21.18
2023-10-10T14:12:33.909Z,21.18
2023-10-10T14:15:03.385Z,21.14
2023-10-10T14:17:31.987Z,21.10
2023-10-10T14:20:01.537Z,21.08
2023-10-10T14:22:37.919Z,21.05
2023-10-10T14:25:13.652Z,21.05
2023-10-10T14:27:45.346Z,21.05
2023-10-10T14:30:32.593Z,21.05
2023-10-10T14:32:59.875Z,21.08
2023-10-10T14:35:26.737Z,21.07
2023-10-10T14:38:01.727Z,21.07
2023-10-10T14:40:29.709Z,21.09
2023-10-10T14:42:56.134Z,21.12
2023-10-10T14:45:30.207Z,21.12
2023-10-10T14:47:56.980Z,21.16
2023-10-10T14:50:24.754Z,21.14
2023-10-10T14:52:54.932Z,21.15
2023-10-10T14:55:29.149Z,21.17
2023-10-10T14:57:57.159Z,21.19
2023-10-10T15:00:29.634Z,21.22
2023-10-10T15:02:58.116Z,21.22
2023-10-10T15:05:25.714Z,21.20
2023-10-10T15:07:55.062Z,21.20
2023-10-10T15:10:24.815Z,21.09
2023-10-10T15:12:51.553Z,21.02
2023-10-10T15:15:18.298Z,20.96
2023-10-10T15:17:44.968Z,20.91
2023-10-10T15:20:15.299Z,20.86
2023-10-10T15:22:43.280Z,20.82
2023-10-10T15:25:11.958Z,20.78
2023-10-10T15:27:42.930Z,20.72
2023-10-10T15:30:10.174Z,20.68
2023-10-10T15:32:48.951Z,20.62
2023-10-10T15:35:20.118Z,20.59
2023-10-10T15:37:47.369Z,20.57
2023-10-10T15:40:21.933Z,20.53
2023-10-10T15:42:53.133Z,20.50
2023-10-10T15:45:22.811Z,20.46
2023-10-10T15:47:50.739Z,20.41
2023-10-10T15:50:17.963Z,20.37
2023-10-10T15:52:49.940Z,20.33
2023-10-10T15:55:20.438Z,20.31
2023-10-10T15:57:47.549Z,20.23
2023-10-10T16:00:16.940Z,20.16
2023-10-10T16:02:43.569Z,20.10
2023-10-10T16:05:10.660Z,20.08
2023-10-10T16:07:37.464Z,20.06
2023-10-10T16:10:04.564Z,20.01
2023-10-10T16:12:31.610Z,19.94
2023-10-10T16:14:58.192Z,19.87
2023-10-10T16:17:24.866Z,19.82
2023-10-10T16:19:51.399Z,19.76
2023-10-10T16:22:18.352Z,19.71
2023-10-10T16:24:45.788Z,19.66
2023-10-10T16:27:12.427Z,19.59
2023-10-10T16:29:39.113Z,19.53
2023-10-10T16:32:18.424Z,19.47
2023-10-10T16:34:45.060Z,19.45
2023-10-10T16:37:15.572Z,19.37
2023-10-10T16:39:46.493Z,19.32
2023-10-10T16:42:13.758Z,19.26
2023-10-10T16:44:40.558Z,19.16
2023-10-10T16:47:07.103Z,19.10
2023-10-10T16:49:38.138Z,19.06
2023-10-10T16:52:14.974Z,19.00
2023-10-10T16:54:47.166Z,19.00
2023-10-10T16:57:22.458Z,18.94
2023-10-10T16:59:49.216Z,18.87
2023-10-10T17:02:16.475Z,18.86
2023-10-10T17:04:44.796Z,18.82
2023-10-10T17:07:14.169Z,18.75
2023-10-10T17:09:41.411Z,18.71
2023-10-10T17:12:08.317Z,18.65
2023-10-10T17:14:38.452Z,18.62
2023-10-10T17:17:05.388Z,18.54
2023-10-10T17:19:32.965Z,18.50
2023-10-10T17:22:00.378Z,18.44
2023-10-10T17:24:27.659Z,18.40
2023-10-10T17:26:55.213Z,18.36
2023-10-10T17:29:24.930Z,18.36
2023-10-10T17:31:54.376Z,18.29
2023-10-10T17:34:23.272Z,18.25
2023-10-10T17:36:51.550Z,18.21
2023-10-10T17:39:18.562Z,18.20
2023-10-10T17:41:49.389Z,18.15
2023-10-10T17:44:28.875Z,18.09
2023-10-10T17:46:55.926Z,18.04
2023-10-10T17:49:22.488Z,17.99
2023-10-10T17:51:49.655Z,17.97
2023-10-10T17:54:17.365Z,17.91
2023-10-10T17:56:45.930Z,17.88
2023-10-10T17:59:13.164Z,17.83
2023-10-10T18:01:39.903Z,17.77
2023-10-10T18:04:08.557Z,17.74
2023-10-10T18:06:36.381Z,17.70
2023-10-10T18:09:09.499Z,17.67
2023-10-10T18:11:37.959Z,17.66
2023-10-10T18:14:06.528Z,17.65
2023-10-10T18:16:35.580Z,17.64
2023-10-10T18:19:02.515Z,17.58
2023-10-10T18:21:33.208Z,17.55
2023-10-10T18:24:07.075Z,17.51
2023-10-10T18:26:40.767Z,17.47
2023-10-10T18:29:07.631Z,17.45
2023-10-10T18:31:40.358Z,17.41
2023-10-10T18:34:07.885Z,17.37
2023-10-10T18:36:37.918Z,17.39
2023-10-10T18:39:06.349Z,17.33
2023-10-10T18:41:33.815Z,17.31
2023-10-10T18:44:00.283Z,17.29
2023-10-10T18:46:26.937Z,17.26
2023-10-10T18:48:53.540Z,17.21
2023-10-10T18:51:20.448Z,17.18
2023-10-10T18:53:48.723Z,17.14
2023-10-10T18:56:16.441Z,17.13
2023-10-10T18:58:43.166Z,17.08
2023-10-10T19:01:15.290Z,17.05
2023-10-10T19:03:48.433Z,17.00
2023-10-10T19:06:19.411Z,16.97
2023-10-10T19:08:49.916Z,16.96
2023-10-10T19:11:24.820Z,16.89
2023-10-10T19:13:51.808Z,16.85
2023-10-10T19:16:18.923Z,16.81
2023-10-10T19:18:47.014Z,16.78
2023-10-10T19:21:19.739Z,16.76
2023-10-10T19:23:51.701Z,16.77
2023-10-10T19:26:18.883Z,16.79
2023-10-10T19:28:54.677Z,16.80
2023-10-10T19:31:22.213Z,16.81
2023-10-10T19:33:48.884Z,16.78
2023-10-10T19:36:17.558Z,16.74
2023-10-10T19:38:44.475Z,16.73
2023-10-10T19:41:11.320Z,16.74
2023-10-10T19:43:38.757Z,16.74
2023-10-10T19:46:12.108Z,16.73
2023-10-10T19:48:52.303Z,16.69
2023-10-10T19:51:20.141Z,16.71
2023-10-10T19:53:50.447Z,16.71
2023-10-10T19:56:17.533Z,16.71
2023-10-10T19:58:46.860Z,16.70
2023-10-10T20:01:14.010Z,16.71
2023-10-10T20:03:44.226Z,16.70
2023-10-10T20:06:21.099Z,16.71
2023-10-10T20:08:49.455Z,16.69
2023-10-10T20:11:16.289Z,16.72
2023-10-10T20:13:43.111Z,16.70
2023-10-10T20:16:17.850Z,16.68
2023-10-10T20:18:48.379Z,16.66
2023-10-10T20:21:16.864Z,16.65
2023-10-10T20:23:44.260Z,16.63
2023-10-10T20:26:19.409Z,16.60
2023-10-10T20:28:48.378Z,16.60
2023-10-10T20:31:16.234Z,16.60
2023-10-10T20:33:45.403Z,16.57
2023-10-10T20:36:14.899Z,16.54
2023-10-10T20:38:44.221Z,16.53
2023-10-10T20:41:12.608Z,16.51
2023-10-10T20:43:41.129Z,16.52
2023-10-10T20:46:07.862Z,16.53
2023-10-10T20:48:35.233Z,16.55
2023-10-10T20:51:05.085Z,16.61
2023-10-10T20:53:32.620Z,16.62
2023-10-10T20:55:59.476Z,16.66
2023-10-10T20:58:26.042Z,16.67
2023-10-10T21:00:52.802Z,16.68
2023-10-10T21:03:19.699Z,16.70
2023-10-10T21:05:48.021Z,16.70
2023-10-10T21:08:18.072Z,16.72
2023-10-10T21:10:44.713Z,16.76
2023-10-10T21:13:11.202Z,16.82
2023-10-10T21:15:39.225Z,16.81
2023-10-10T21:18:09.275Z,16.77
2023-10-10T21:20:42.257Z,16.75
2023-10-10T21:23:18.721Z,16.77
2023-10-10T21:25:47.282Z,16.79
2023-10-10T21:28:13.964Z,16.80
2023-10-10T21:30:40.637Z,16.82
2023-10-10T21:33:08.305Z,16.86
2023-10-10T21:35:35.162Z,16.86
2023-10-10T21:38:03.565Z,16.86
2023-10-10T21:40:32.688Z,16.84
2023-10-10T21:43:02.730Z,16.82
2023-10-10T21:45:36.500Z,16.78
2023-10-10T21:48:05.459Z,16.74
2023-10-10T21:50:32.542Z,16.73
2023-10-10T21:52:59.314Z,16.71
2023-10-10T21:55:26.108Z,16.70
2023-10-10T21:57:56.437Z,16.69
2023-10-10T22:00:27.605Z,16.70
2023-10-10T22:02:54.161Z,16.69
2023-10-10T22:05:20.915Z,16.67
2023-10-10T22:07:48.352Z,16.64
2023-10-10T22:10:21.327Z,16.60
2023-10-10T22:12:56.101Z,16.58
2023-10-10T22:15:25.781Z,16.55
2023-10-10T22:17:59.279Z,16.55
2023-10-10T22:20:29.144Z,16.55
2023-10-10T22:22:55.831Z,16.54
2023-10-10T22:25:23.441Z,16.53
2023-10-10T22:27:52.886Z,16.52
2023-10-10T22:30:25.926Z,16.49
2023-10-10T22:32:55.264Z,16.48
2023-10-10T22:35:23.136Z,16.46
2023-10-10T22:37:52.098Z,16.44
2023-10-10T22:40:26.489Z,16.41
2023-10-10T22:42:57.775Z,16.39
2023-10-10T22:45:24.782Z,16.37
2023-10-10T22:47:55.209Z,16.33
2023-10-10T22:50:22.831Z,16.31
2023-10-10T22:52:54.042Z,16.29
2023-10-10T22:55:21.666Z,16.29
2023-10-10T22:57:51.662Z,16.27
2023-10-10T23:00:27.217Z,16.27
2023-10-10T23:02:58.200Z,16.26
2023-10-10T23:05:27.155Z,16.24
2023-10-10T23:07:54.343Z,16.23
2023-10-10T23:10:23.534Z,16.23
2023-10-10T23:12:56.435Z,16.22
2023-10-10T23:15:29.447Z,16.22
2023-10-10T23:17:59.325Z,16.21
2023-10-10T23:20:27.933Z,16.19
2023-10-10T23:22:56.733Z,16.17
2023-10-10T23:25:25.579Z,16.15
2023-10-10T23:27:55.066Z,16.13
2023-10-10T23:30:21.991Z,16.12
2023-10-10T23:32:52.335Z,16.11
2023-10-10T23:35:22.994Z,16.11
2023-10-10T23:37:53.644Z,16.12
2023-10-10T23:40:42.199Z,16.09
2023-10-10T23:43:10.454Z,16.07
2023-10-10T23:45:43.371Z,16.05
2023-10-10T23:48:17.935Z,16.03
2023-10-10T23:50:45.806Z,16.02
2023-10-10T23:53:16.397Z,16.02
2023-10-10T23:55:46.744Z,16.00
2023-10-10T23:58:13.957Z,15.97
